sensor_id;sensor_type;location;lat;lon;timestamp;temperature;humidity
80132;SHT30;69442;51.442;10.564;2023-12-14T00:01:24;8.12;83.61
80132;SHT30;69442;51.442;10.564;2023-12-14T00:03:49;8.10;83.61
80132;SHT30;69442;51.442;10.564;2023-12-14T00:06:15;8.13;83.67
80132;SHT30;69442;51.442;10.564;2023-12-14T00:08:40;8.10;83.77
80132;SHT30;69442;51.442;10.564;2023-12-14T00:11:07;8.09;83.58
80132;SHT30;69442;51.442;10.564;2023-12-14T00:13:33;8.06;83.65
80132;SHT30;69442;51.442;10.564;2023-12-14T00:15:59;8.03;83.81
80132;SHT30;69442;51.442;10.564;2023-12-14T00:18:24;8.05;83.99
80132;SHT30;69442;51.442;10.564;2023-12-14T00:20:50;8.05;83.81
80132;SHT30;69442;51.442;10.564;2023-12-14T00:23:16;8.03;83.84
80132;SHT30;69442;51.442;10.564;2023-12-14T00:25:41;8.03;83.63
80132;SHT30;69442;51.442;10.564;2023-12-14T00:28:06;8.02;83.76
80132;SHT30;69442;51.442;10.564;2023-12-14T00:30:32;7.99;83.72
80132;SHT30;69442;51.442;10.564;2023-12-14T00:32:57;8.01;83.68
80132;SHT30;69442;51.442;10.564;2023-12-14T00:35:22;7.99;83.62
80132;SHT30;69442;51.442;10.564;2023-12-14T00:37:48;7.99;83.81
80132;SHT30;69442;51.442;10.564;2023-12-14T00:40:13;7.99;83.74
80132;SHT30;69442;51.442;10.564;2023-12-14T00:42:39;7.98;83.69
80132;SHT30;69442;51.442;10.564;2023-12-14T00:45:04;7.97;83.79
80132;SHT30;69442;51.442;10.564;2023-12-14T00:47:30;7.95;83.70
80132;SHT30;69442;51.442;10.564;2023-12-14T00:49:55;7.97;84.41
80132;SHT30;69442;51.442;10.564;2023-12-14T00:52:21;7.98;83.95
80132;SHT30;69442;51.442;10.564;2023-12-14T00:54:46;7.97;84.27
80132;SHT30;69442;51.442;10.564;2023-12-14T00:57:11;7.99;83.96
80132;SHT30;69442;51.442;10.564;2023-12-14T00:59:37;7.98;84.13
80132;SHT30;69442;51.442;10.564;2023-12-14T01:02:02;7.94;83.91
80132;SHT30;69442;51.442;10.564;2023-12-14T01:04:27;7.94;83.92
80132;SHT30;69442;51.442;10.564;2023-12-14T01:06:53;7.94;83.90
80132;SHT30;69442;51.442;10.564;2023-12-14T01:09:18;7.92;83.96
80132;SHT30;69442;51.442;10.564;2023-12-14T01:11:43;7.94;84.12
80132;SHT30;69442;51.442;10.564;2023-12-14T01:14:09;7.92;83.97
80132;SHT30;69442;51.442;10.564;2023-12-14T01:16:34;7.91;84.03
80132;SHT30;69442;51.442;10.564;2023-12-14T01:19:00;7.91;84.10
80132;SHT30;69442;51.442;10.564;2023-12-14T01:21:25;7.92;84.12
80132;SHT30;69442;51.442;10.564;2023-12-14T01:23:50;7.91;84.17
80132;SHT30;69442;51.442;10.564;2023-12-14T01:26:17;7.92;84.29
80132;SHT30;69442;51.442;10.564;2023-12-14T01:28:43;7.92;84.62
80132;SHT30;69442;51.442;10.564;2023-12-14T01:31:09;7.91;84.30
80132;SHT30;69442;51.442;10.564;2023-12-14T01:33:34;7.92;84.19
80132;SHT30;69442;51.442;10.564;2023-12-14T01:35:59;7.89;84.41
80132;SHT30;69442;51.442;10.564;2023-12-14T01:38:25;7.92;84.38
80132;SHT30;69442;51.442;10.564;2023-12-14T01:40:50;7.92;84.27
80132;SHT30;69442;51.442;10.564;2023-12-14T01:43:16;7.95;84.24
80132;SHT30;69442;51.442;10.564;2023-12-14T01:45:41;7.91;84.29
80132;SHT30;69442;51.442;10.564;2023-12-14T01:48:07;7.91;84.30
80132;SHT30;69442;51.442;10.564;2023-12-14T01:50:32;7.89;84.38
80132;SHT30;69442;51.442;10.564;2023-12-14T01:52:58;7.92;84.42
80132;SHT30;69442;51.442;10.564;2023-12-14T01:55:23;7.92;84.42
80132;SHT30;69442;51.442;10.564;2023-12-14T01:57:52;7.89;84.48
80132;SHT30;69442;51.442;10.564;2023-12-14T02:00:39;7.92;84.44
80132;SHT30;69442;51.442;10.564;2023-12-14T02:03:06;7.92;84.40
80132;SHT30;69442;51.442;10.564;2023-12-14T02:05:31;7.94;84.51
80132;SHT30;69442;51.442;10.564;2023-12-14T02:07:57;7.94;84.41
80132;SHT30;69442;51.442;10.564;2023-12-14T02:10:22;7.95;84.29
80132;SHT30;69442;51.442;10.564;2023-12-14T02:12:48;7.94;84.57
80132;SHT30;69442;51.442;10.564;2023-12-14T02:15:13;7.95;84.43
80132;SHT30;69442;51.442;10.564;2023-12-14T02:17:39;7.92;84.49
80132;SHT30;69442;51.442;10.564;2023-12-14T02:20:05;7.91;84.64
80132;SHT30;69442;51.442;10.564;2023-12-14T02:25:18;7.94;84.59
80132;SHT30;69442;51.442;10.564;2023-12-14T02:27:44;7.95;84.61
80132;SHT30;69442;51.442;10.564;2023-12-14T02:30:10;7.89;84.60
80132;SHT30;69442;51.442;10.564;2023-12-14T02:32:36;7.91;84.83
80132;SHT30;69442;51.442;10.564;2023-12-14T02:35:02;7.91;84.81
80132;SHT30;69442;51.442;10.564;2023-12-14T02:37:27;7.92;84.60
80132;SHT30;69442;51.442;10.564;2023-12-14T02:39:53;7.89;84.49
80132;SHT30;69442;51.442;10.564;2023-12-14T02:42:18;7.91;84.56
80132;SHT30;69442;51.442;10.564;2023-12-14T02:44:44;7.94;84.40
80132;SHT30;69442;51.442;10.564;2023-12-14T02:47:09;7.94;84.43
80132;SHT30;69442;51.442;10.564;2023-12-14T02:49:35;7.88;84.42
80132;SHT30;69442;51.442;10.564;2023-12-14T02:52:00;7.89;84.58
80132;SHT30;69442;51.442;10.564;2023-12-14T02:54:25;7.91;84.36
80132;SHT30;69442;51.442;10.564;2023-12-14T02:56:51;7.88;84.52
80132;SHT30;69442;51.442;10.564;2023-12-14T02:59:16;7.88;84.33
80132;SHT30;69442;51.442;10.564;2023-12-14T03:01:41;7.91;84.46
80132;SHT30;69442;51.442;10.564;2023-12-14T03:04:07;7.95;84.64
80132;SHT30;69442;51.442;10.564;2023-12-14T03:06:33;7.92;84.40
80132;SHT30;69442;51.442;10.564;2023-12-14T03:08:59;7.91;84.30
80132;SHT30;69442;51.442;10.564;2023-12-14T03:11:24;7.91;84.39
80132;SHT30;69442;51.442;10.564;2023-12-14T03:13:50;7.88;84.34
80132;SHT30;69442;51.442;10.564;2023-12-14T03:16:15;7.85;84.04
80132;SHT30;69442;51.442;10.564;2023-12-14T03:18:44;7.88;83.96
80132;SHT30;69442;51.442;10.564;2023-12-14T03:21:10;7.84;84.03
80132;SHT30;69442;51.442;10.564;2023-12-14T03:23:35;7.88;84.15
80132;SHT30;69442;51.442;10.564;2023-12-14T03:26:01;7.84;83.65
80132;SHT30;69442;51.442;10.564;2023-12-14T03:28:27;7.81;83.69
80132;SHT30;69442;51.442;10.564;2023-12-14T03:30:52;7.82;83.93
80132;SHT30;69442;51.442;10.564;2023-12-14T03:33:18;7.82;83.94
80132;SHT30;69442;51.442;10.564;2023-12-14T03:35:43;7.81;83.67
80132;SHT30;69442;51.442;10.564;2023-12-14T03:38:09;7.78;83.54
80132;SHT30;69442;51.442;10.564;2023-12-14T03:40:35;7.80;83.61
80132;SHT30;69442;51.442;10.564;2023-12-14T03:43:01;7.78;83.86
80132;SHT30;69442;51.442;10.564;2023-12-14T03:45:27;7.80;83.89
80132;SHT30;69442;51.442;10.564;2023-12-14T03:47:52;7.80;84.17
80132;SHT30;69442;51.442;10.564;2023-12-14T03:50:18;7.81;83.96
80132;SHT30;69442;51.442;10.564;2023-12-14T03:52:43;7.81;84.09
80132;SHT30;69442;51.442;10.564;2023-12-14T03:55:09;7.78;83.91
80132;SHT30;69442;51.442;10.564;2023-12-14T03:57:34;7.78;83.61
80132;SHT30;69442;51.442;10.564;2023-12-14T04:00:00;7.80;84.29
80132;SHT30;69442;51.442;10.564;2023-12-14T04:02:25;7.81;83.87
80132;SHT30;69442;51.442;10.564;2023-12-14T04:04:50;7.77;83.49
80132;SHT30;69442;51.442;10.564;2023-12-14T04:07:16;7.78;83.78
80132;SHT30;69442;51.442;10.564;2023-12-14T04:09:45;7.81;83.89
80132;SHT30;69442;51.442;10.564;2023-12-14T04:12:11;7.74;83.51
80132;SHT30;69442;51.442;10.564;2023-12-14T04:14:36;7.74;83.50
80132;SHT30;69442;51.442;10.564;2023-12-14T04:17:02;7.70;83.30
80132;SHT30;69442;51.442;10.564;2023-12-14T04:19:27;7.70;83.57
80132;SHT30;69442;51.442;10.564;2023-12-14T04:21:53;7.74;84.23
80132;SHT30;69442;51.442;10.564;2023-12-14T04:24:18;7.71;83.80
80132;SHT30;69442;51.442;10.564;2023-12-14T04:26:44;7.71;83.68
80132;SHT30;69442;51.442;10.564;2023-12-14T04:29:10;7.66;82.82
80132;SHT30;69442;51.442;10.564;2023-12-14T04:31:35;7.60;82.94
80132;SHT30;69442;51.442;10.564;2023-12-14T04:34:00;7.61;83.04
80132;SHT30;69442;51.442;10.564;2023-12-14T04:36:26;7.61;83.72
80132;SHT30;69442;51.442;10.564;2023-12-14T04:38:51;7.60;82.93
80132;SHT30;69442;51.442;10.564;2023-12-14T04:41:17;7.63;83.74
80132;SHT30;69442;51.442;10.564;2023-12-14T04:43:42;7.60;83.45
80132;SHT30;69442;51.442;10.564;2023-12-14T04:46:07;7.57;83.35
80132;SHT30;69442;51.442;10.564;2023-12-14T04:48:33;7.54;82.67
80132;SHT30;69442;51.442;10.564;2023-12-14T04:50:58;7.57;83.66
80132;SHT30;69442;51.442;10.564;2023-12-14T04:53:23;7.63;84.01
80132;SHT30;69442;51.442;10.564;2023-12-14T04:55:49;7.60;82.91
80132;SHT30;69442;51.442;10.564;2023-12-14T04:58:14;7.52;82.49
80132;SHT30;69442;51.442;10.564;2023-12-14T05:00:40;7.57;83.24
80132;SHT30;69442;51.442;10.564;2023-12-14T05:03:05;7.53;82.55
80132;SHT30;69442;51.442;10.564;2023-12-14T05:05:31;7.52;82.80
80132;SHT30;69442;51.442;10.564;2023-12-14T05:07:56;7.50;83.41
80132;SHT30;69442;51.442;10.564;2023-12-14T05:10:22;7.44;82.58
80132;SHT30;69442;51.442;10.564;2023-12-14T05:12:47;7.47;83.25
80132;SHT30;69442;51.442;10.564;2023-12-14T05:15:13;7.43;82.59
80132;SHT30;69442;51.442;10.564;2023-12-14T05:17:39;7.47;83.43
80132;SHT30;69442;51.442;10.564;2023-12-14T05:20:08;7.42;82.62
80132;SHT30;69442;51.442;10.564;2023-12-14T05:22:33;7.40;82.47
80132;SHT30;69442;51.442;10.564;2023-12-14T05:24:59;7.39;82.43
80132;SHT30;69442;51.442;10.564;2023-12-14T05:27:24;7.30;81.68
80132;SHT30;69442;51.442;10.564;2023-12-14T05:29:50;7.36;82.89
80132;SHT30;69442;51.442;10.564;2023-12-14T05:32:15;7.37;83.51
80132;SHT30;69442;51.442;10.564;2023-12-14T05:34:41;7.29;82.19
80132;SHT30;69442;51.442;10.564;2023-12-14T05:37:06;7.25;82.10
80132;SHT30;69442;51.442;10.564;2023-12-14T05:39:32;7.20;81.85
80132;SHT30;69442;51.442;10.564;2023-12-14T05:41:57;7.25;82.49
80132;SHT30;69442;51.442;10.564;2023-12-14T05:44:22;7.26;81.75
80132;SHT30;69442;51.442;10.564;2023-12-14T05:46:48;7.27;82.49
80132;SHT30;69442;51.442;10.564;2023-12-14T05:49:14;7.22;81.60
80132;SHT30;69442;51.442;10.564;2023-12-14T05:51:39;7.12;81.42
80132;SHT30;69442;51.442;10.564;2023-12-14T05:54:05;7.18;82.03
80132;SHT30;69442;51.442;10.564;2023-12-14T05:56:30;7.19;82.18
80132;SHT30;69442;51.442;10.564;2023-12-14T05:58:56;7.14;81.86
80132;SHT30;69442;51.442;10.564;2023-12-14T06:01:23;7.08;81.45
80132;SHT30;69442;51.442;10.564;2023-12-14T06:03:48;7.04;81.61
80132;SHT30;69442;51.442;10.564;2023-12-14T06:06:14;7.09;82.90
80132;SHT30;69442;51.442;10.564;2023-12-14T06:08:40;7.18;85.46
80132;SHT30;69442;51.442;10.564;2023-12-14T06:11:05;7.18;84.68
80132;SHT30;69442;51.442;10.564;2023-12-14T06:13:31;7.11;83.11
80132;SHT30;69442;51.442;10.564;2023-12-14T06:15:57;7.16;83.27
80132;SHT30;69442;51.442;10.564;2023-12-14T06:18:22;7.14;82.74
80132;SHT30;69442;51.442;10.564;2023-12-14T06:20:48;7.14;82.30
80132;SHT30;69442;51.442;10.564;2023-12-14T06:23:14;7.14;82.22
80132;SHT30;69442;51.442;10.564;2023-12-14T06:25:39;7.09;81.85
80132;SHT30;69442;51.442;10.564;2023-12-14T06:28:04;7.05;81.25
80132;SHT30;69442;51.442;10.564;2023-12-14T06:30:30;7.05;82.09
80132;SHT30;69442;51.442;10.564;2023-12-14T06:32:55;7.05;82.39
80132;SHT30;69442;51.442;10.564;2023-12-14T06:35:21;7.02;81.33
80132;SHT30;69442;51.442;10.564;2023-12-14T06:37:47;7.04;81.49
80132;SHT30;69442;51.442;10.564;2023-12-14T06:40:12;7.04;82.72
80132;SHT30;69442;51.442;10.564;2023-12-14T06:42:38;6.99;81.64
80132;SHT30;69442;51.442;10.564;2023-12-14T06:45:04;6.97;81.72
80132;SHT30;69442;51.442;10.564;2023-12-14T06:47:29;7.01;82.32
80132;SHT30;69442;51.442;10.564;2023-12-14T06:49:55;6.98;81.78
80132;SHT30;69442;51.442;10.564;2023-12-14T06:52:23;6.95;81.00
80132;SHT30;69442;51.442;10.564;2023-12-14T06:54:48;6.91;81.83
80132;SHT30;69442;51.442;10.564;2023-12-14T06:57:14;6.85;80.83
80132;SHT30;69442;51.442;10.564;2023-12-14T06:59:39;6.84;81.00
80132;SHT30;69442;51.442;10.564;2023-12-14T07:02:06;6.84;81.48
80132;SHT30;69442;51.442;10.564;2023-12-14T07:04:32;6.83;81.44
80132;SHT30;69442;51.442;10.564;2023-12-14T07:06:57;6.81;80.89
80132;SHT30;69442;51.442;10.564;2023-12-14T07:09:23;6.83;81.06
80132;SHT30;69442;51.442;10.564;2023-12-14T07:11:49;6.85;81.99
80132;SHT30;69442;51.442;10.564;2023-12-14T07:14:14;6.80;81.04
80132;SHT30;69442;51.442;10.564;2023-12-14T07:16:40;6.79;81.08
80132;SHT30;69442;51.442;10.564;2023-12-14T07:19:06;6.74;81.35
80132;SHT30;69442;51.442;10.564;2023-12-14T07:21:31;6.70;80.30
80132;SHT30;69442;51.442;10.564;2023-12-14T07:23:57;6.76;81.56
80132;SHT30;69442;51.442;10.564;2023-12-14T07:26:23;6.76;81.03
80132;SHT30;69442;51.442;10.564;2023-12-14T07:28:48;6.72;81.69
80132;SHT30;69442;51.442;10.564;2023-12-14T07:31:14;6.67;80.67
80132;SHT30;69442;51.442;10.564;2023-12-14T07:33:39;6.70;81.64
80132;SHT30;69442;51.442;10.564;2023-12-14T07:36:05;6.69;81.15
80132;SHT30;69442;51.442;10.564;2023-12-14T07:38:31;6.67;81.21
80132;SHT30;69442;51.442;10.564;2023-12-14T07:40:56;6.64;80.88
80132;SHT30;69442;51.442;10.564;2023-12-14T07:43:22;6.57;80.58
80132;SHT30;69442;51.442;10.564;2023-12-14T07:45:48;6.58;80.70
80132;SHT30;69442;51.442;10.564;2023-12-14T07:48:13;6.52;80.18
80132;SHT30;69442;51.442;10.564;2023-12-14T07:50:39;6.62;81.22
80132;SHT30;69442;51.442;10.564;2023-12-14T07:53:04;6.62;80.71
80132;SHT30;69442;51.442;10.564;2023-12-14T07:55:30;6.58;80.62
80132;SHT30;69442;51.442;10.564;2023-12-14T07:57:56;6.60;81.95
80132;SHT30;69442;51.442;10.564;2023-12-14T08:00:21;6.60;81.98
80132;SHT30;69442;51.442;10.564;2023-12-14T08:02:47;6.62;81.75
80132;SHT30;69442;51.442;10.564;2023-12-14T08:05:12;6.58;80.64
80132;SHT30;69442;51.442;10.564;2023-12-14T08:07:38;6.62;81.94
80132;SHT30;69442;51.442;10.564;2023-12-14T08:10:04;6.53;80.83
80132;SHT30;69442;51.442;10.564;2023-12-14T08:12:29;6.49;80.58
80132;SHT30;69442;51.442;10.564;2023-12-14T08:14:54;6.47;80.46
80132;SHT30;69442;51.442;10.564;2023-12-14T08:17:20;6.57;81.67
80132;SHT30;69442;51.442;10.564;2023-12-14T08:19:46;6.49;80.56
80132;SHT30;69442;51.442;10.564;2023-12-14T08:22:12;6.43;80.57
80132;SHT30;69442;51.442;10.564;2023-12-14T08:24:41;6.42;80.60
80132;SHT30;69442;51.442;10.564;2023-12-14T08:27:07;6.49;81.77
80132;SHT30;69442;51.442;10.564;2023-12-14T08:29:32;6.42;80.38
80132;SHT30;69442;51.442;10.564;2023-12-14T08:31:58;6.35;80.20
80132;SHT30;69442;51.442;10.564;2023-12-14T08:34:27;6.38;81.36
80132;SHT30;69442;51.442;10.564;2023-12-14T08:36:52;6.29;80.18
80132;SHT30;69442;51.442;10.564;2023-12-14T08:39:18;6.32;81.14
80132;SHT30;69442;51.442;10.564;2023-12-14T08:41:46;6.32;81.16
80132;SHT30;69442;51.442;10.564;2023-12-14T08:44:12;6.39;81.95
80132;SHT30;69442;51.442;10.564;2023-12-14T08:46:45;6.32;80.59
80132;SHT30;69442;51.442;10.564;2023-12-14T08:49:12;6.32;80.36
80132;SHT30;69442;51.442;10.564;2023-12-14T08:51:38;6.35;81.29
80132;SHT30;69442;51.442;10.564;2023-12-14T08:54:05;6.35;81.13
80132;SHT30;69442;51.442;10.564;2023-12-14T08:56:30;6.33;81.34
80132;SHT30;69442;51.442;10.564;2023-12-14T08:58:56;6.36;81.73
80132;SHT30;69442;51.442;10.564;2023-12-14T09:01:23;6.35;80.36
80132;SHT30;69442;51.442;10.564;2023-12-14T09:03:48;6.33;80.29
80132;SHT30;69442;51.442;10.564;2023-12-14T09:06:16;6.29;80.22
80132;SHT30;69442;51.442;10.564;2023-12-14T09:08:41;6.26;80.78
80132;SHT30;69442;51.442;10.564;2023-12-14T09:11:07;6.28;81.16
80132;SHT30;69442;51.442;10.564;2023-12-14T09:13:32;6.25;79.97
80132;SHT30;69442;51.442;10.564;2023-12-14T09:15:58;6.26;80.61
80132;SHT30;69442;51.442;10.564;2023-12-14T09:18:23;6.35;81.79
80132;SHT30;69442;51.442;10.564;2023-12-14T09:20:49;6.24;79.89
80132;SHT30;69442;51.442;10.564;2023-12-14T09:23:16;6.30;81.41
80132;SHT30;69442;51.442;10.564;2023-12-14T09:25:41;6.25;80.15
80132;SHT30;69442;51.442;10.564;2023-12-14T09:28:07;6.30;81.27
80132;SHT30;69442;51.442;10.564;2023-12-14T09:30:32;6.30;80.75
80132;SHT30;69442;51.442;10.564;2023-12-14T09:32:58;6.32;81.39
80132;SHT30;69442;51.442;10.564;2023-12-14T09:35:23;6.29;80.06
80132;SHT30;69442;51.442;10.564;2023-12-14T09:37:49;6.25;80.00
80132;SHT30;69442;51.442;10.564;2023-12-14T09:40:15;6.22;79.83
80132;SHT30;69442;51.442;10.564;2023-12-14T09:42:42;6.28;81.11
80132;SHT30;69442;51.442;10.564;2023-12-14T09:45:08;6.35;81.48
80132;SHT30;69442;51.442;10.564;2023-12-14T09:47:36;6.26;79.96
80132;SHT30;69442;51.442;10.564;2023-12-14T09:50:01;6.29;81.17
80132;SHT30;69442;51.442;10.564;2023-12-14T09:52:28;6.26;80.51
80132;SHT30;69442;51.442;10.564;2023-12-14T09:54:54;6.28;80.72
80132;SHT30;69442;51.442;10.564;2023-12-14T09:57:19;6.26;80.53
80132;SHT30;69442;51.442;10.564;2023-12-14T09:59:52;6.25;80.48
80132;SHT30;69442;51.442;10.564;2023-12-14T10:02:18;6.30;81.43
80132;SHT30;69442;51.442;10.564;2023-12-14T10:04:43;6.26;80.27
80132;SHT30;69442;51.442;10.564;2023-12-14T10:07:09;6.25;81.20
80132;SHT30;69442;51.442;10.564;2023-12-14T10:09:36;6.22;79.97
80132;SHT30;69442;51.442;10.564;2023-12-14T10:12:08;6.21;80.13
80132;SHT30;69442;51.442;10.564;2023-12-14T10:14:35;6.21;80.34
80132;SHT30;69442;51.442;10.564;2023-12-14T10:17:26;6.24;80.20
80132;SHT30;69442;51.442;10.564;2023-12-14T10:19:57;6.18;80.62
80132;SHT30;69442;51.442;10.564;2023-12-14T10:22:25;6.18;80.82
80132;SHT30;69442;51.442;10.564;2023-12-14T10:24:53;6.11;80.40
80132;SHT30;69442;51.442;10.564;2023-12-14T10:27:19;6.21;80.97
80132;SHT30;69442;51.442;10.564;2023-12-14T10:29:45;6.24;81.70
80132;SHT30;69442;51.442;10.564;2023-12-14T10:32:11;6.29;81.73
80132;SHT30;69442;51.442;10.564;2023-12-14T10:34:37;6.24;81.27
80132;SHT30;69442;51.442;10.564;2023-12-14T10:37:05;6.25;81.16
80132;SHT30;69442;51.442;10.564;2023-12-14T10:39:33;6.24;81.19
80132;SHT30;69442;51.442;10.564;2023-12-14T10:42:02;6.22;81.21
80132;SHT30;69442;51.442;10.564;2023-12-14T10:44:28;6.33;81.66
80132;SHT30;69442;51.442;10.564;2023-12-14T10:46:58;6.33;81.48
80132;SHT30;69442;51.442;10.564;2023-12-14T10:49:25;6.25;81.08
80132;SHT30;69442;51.442;10.564;2023-12-14T10:51:55;6.18;80.29
80132;SHT30;69442;51.442;10.564;2023-12-14T10:54:24;6.17;80.58
80132;SHT30;69442;51.442;10.564;2023-12-14T10:56:53;6.19;81.52
80132;SHT30;69442;51.442;10.564;2023-12-14T10:59:19;6.11;80.76
80132;SHT30;69442;51.442;10.564;2023-12-14T11:01:44;6.15;81.22
80132;SHT30;69442;51.442;10.564;2023-12-14T11:04:16;6.18;80.89
80132;SHT30;69442;51.442;10.564;2023-12-14T11:06:42;6.18;80.40
80132;SHT30;69442;51.442;10.564;2023-12-14T11:09:12;6.18;80.60
80132;SHT30;69442;51.442;10.564;2023-12-14T11:11:47;6.15;80.96
80132;SHT30;69442;51.442;10.564;2023-12-14T11:14:23;6.21;81.69
80132;SHT30;69442;51.442;10.564;2023-12-14T11:16:54;6.17;80.77
80132;SHT30;69442;51.442;10.564;2023-12-14T11:19:25;6.22;81.35
80132;SHT30;69442;51.442;10.564;2023-12-14T11:24:18;6.25;81.20
80132;SHT30;69442;51.442;10.564;2023-12-14T11:26:44;6.25;81.13
80132;SHT30;69442;51.442;10.564;2023-12-14T11:29:09;6.22;80.29
80132;SHT30;69442;51.442;10.564;2023-12-14T11:31:34;6.25;80.48
80132;SHT30;69442;51.442;10.564;2023-12-14T11:34:00;6.21;80.26
80132;SHT30;69442;51.442;10.564;2023-12-14T11:36:28;6.25;82.35
80132;SHT30;69442;51.442;10.564;2023-12-14T11:38:54;6.17;80.08
80132;SHT30;69442;51.442;10.564;2023-12-14T11:41:23;6.14;80.10
80132;SHT30;69442;51.442;10.564;2023-12-14T11:43:51;6.08;80.06
80132;SHT30;69442;51.442;10.564;2023-12-14T11:46:17;6.11;80.45
80132;SHT30;69442;51.442;10.564;2023-12-14T11:48:45;6.11;80.63
80132;SHT30;69442;51.442;10.564;2023-12-14T11:51:11;6.05;80.32
80132;SHT30;69442;51.442;10.564;2023-12-14T11:53:37;6.12;80.93
80132;SHT30;69442;51.442;10.564;2023-12-14T11:56:04;6.05;80.20
80132;SHT30;69442;51.442;10.564;2023-12-14T11:58:32;6.08;81.17
80132;SHT30;69442;51.442;10.564;2023-12-14T12:01:16;6.04;80.71
80132;SHT30;69442;51.442;10.564;2023-12-14T12:03:42;6.08;81.99
80132;SHT30;69442;51.442;10.564;2023-12-14T12:06:25;6.08;81.36
80132;SHT30;69442;51.442;10.564;2023-12-14T12:08:53;6.04;80.57
80132;SHT30;69442;51.442;10.564;2023-12-14T12:11:20;6.07;81.40
80132;SHT30;69442;51.442;10.564;2023-12-14T12:13:56;6.07;81.57
80132;SHT30;69442;51.442;10.564;2023-12-14T12:16:22;6.10;82.30
80132;SHT30;69442;51.442;10.564;2023-12-14T12:18:47;6.07;81.50
80132;SHT30;69442;51.442;10.564;2023-12-14T12:21:13;6.07;81.60
80132;SHT30;69442;51.442;10.564;2023-12-14T12:23:39;6.05;80.41
80132;SHT30;69442;51.442;10.564;2023-12-14T12:26:06;5.98;79.89
80132;SHT30;69442;51.442;10.564;2023-12-14T12:28:32;5.98;80.51
80132;SHT30;69442;51.442;10.564;2023-12-14T12:30:57;5.98;79.91
80132;SHT30;69442;51.442;10.564;2023-12-14T12:33:24;5.94;79.90
80132;SHT30;69442;51.442;10.564;2023-12-14T12:35:51;5.93;80.96
80132;SHT30;69442;51.442;10.564;2023-12-14T12:38:16;5.91;80.20
80132;SHT30;69442;51.442;10.564;2023-12-14T12:40:44;5.86;79.61
80132;SHT30;69442;51.442;10.564;2023-12-14T12:43:09;5.84;80.32
80132;SHT30;69442;51.442;10.564;2023-12-14T12:45:35;5.89;81.12
80132;SHT30;69442;51.442;10.564;2023-12-14T12:48:01;5.87;80.13
80132;SHT30;69442;51.442;10.564;2023-12-14T12:50:29;5.81;79.72
80132;SHT30;69442;51.442;10.564;2023-12-14T12:52:55;5.87;81.09
80132;SHT30;69442;51.442;10.564;2023-12-14T12:55:20;5.86;80.40
80132;SHT30;69442;51.442;10.564;2023-12-14T12:57:48;5.86;80.29
80132;SHT30;69442;51.442;10.564;2023-12-14T13:00:14;5.84;79.78
80132;SHT30;69442;51.442;10.564;2023-12-14T13:02:41;5.84;80.30
80132;SHT30;69442;51.442;10.564;2023-12-14T13:05:07;5.80;80.48
80132;SHT30;69442;51.442;10.564;2023-12-14T13:07:34;5.78;79.88
80132;SHT30;69442;51.442;10.564;2023-12-14T13:09:59;5.76;80.26
80132;SHT30;69442;51.442;10.564;2023-12-14T13:12:25;5.70;80.79
80132;SHT30;69442;51.442;10.564;2023-12-14T13:14:51;5.77;80.60
80132;SHT30;69442;51.442;10.564;2023-12-14T13:17:17;5.71;80.22
80132;SHT30;69442;51.442;10.564;2023-12-14T13:19:44;5.67;79.89
80132;SHT30;69442;51.442;10.564;2023-12-14T13:22:09;5.73;80.08
80132;SHT30;69442;51.442;10.564;2023-12-14T13:24:36;5.66;79.93
80132;SHT30;69442;51.442;10.564;2023-12-14T13:27:02;5.65;80.06
80132;SHT30;69442;51.442;10.564;2023-12-14T13:29:28;5.67;80.50
80132;SHT30;69442;51.442;10.564;2023-12-14T13:31:56;5.76;81.39
80132;SHT30;69442;51.442;10.564;2023-12-14T13:34:21;5.70;80.22
80132;SHT30;69442;51.442;10.564;2023-12-14T13:36:46;5.74;81.40
80132;SHT30;69442;51.442;10.564;2023-12-14T13:39:12;5.76;80.78
80132;SHT30;69442;51.442;10.564;2023-12-14T13:41:38;5.74;80.99
80132;SHT30;69442;51.442;10.564;2023-12-14T13:44:03;5.76;81.77
80132;SHT30;69442;51.442;10.564;2023-12-14T13:46:29;5.74;81.21
80132;SHT30;69442;51.442;10.564;2023-12-14T13:48:54;5.74;80.88
80132;SHT30;69442;51.442;10.564;2023-12-14T13:51:19;5.77;80.84
80132;SHT30;69442;51.442;10.564;2023-12-14T13:53:45;5.71;80.33
80132;SHT30;69442;51.442;10.564;2023-12-14T13:56:10;5.71;80.60
80132;SHT30;69442;51.442;10.564;2023-12-14T13:58:35;5.67;79.88
80132;SHT30;69442;51.442;10.564;2023-12-14T14:01:06;5.63;79.98
80132;SHT30;69442;51.442;10.564;2023-12-14T14:03:35;5.71;80.81
80132;SHT30;69442;51.442;10.564;2023-12-14T14:06:03;5.70;80.28
80132;SHT30;69442;51.442;10.564;2023-12-14T14:08:28;5.65;80.03
80132;SHT30;69442;51.442;10.564;2023-12-14T14:10:54;5.52;80.21
80132;SHT30;69442;51.442;10.564;2023-12-14T14:13:19;5.55;80.13
80132;SHT30;69442;51.442;10.564;2023-12-14T14:15:46;5.53;80.15
80132;SHT30;69442;51.442;10.564;2023-12-14T14:18:12;5.50;80.25
80132;SHT30;69442;51.442;10.564;2023-12-14T14:20:38;5.45;79.88
80132;SHT30;69442;51.442;10.564;2023-12-14T14:23:04;5.48;80.53
80132;SHT30;69442;51.442;10.564;2023-12-14T14:25:30;5.49;80.31
80132;SHT30;69442;51.442;10.564;2023-12-14T14:27:55;5.45;79.96
80132;SHT30;69442;51.442;10.564;2023-12-14T14:30:20;5.50;80.89
80132;SHT30;69442;51.442;10.564;2023-12-14T14:32:46;5.45;79.72
80132;SHT30;69442;51.442;10.564;2023-12-14T14:35:11;5.49;81.14
80132;SHT30;69442;51.442;10.564;2023-12-14T14:37:37;5.42;80.49
80132;SHT30;69442;51.442;10.564;2023-12-14T14:40:02;5.45;80.74
80132;SHT30;69442;51.442;10.564;2023-12-14T14:42:29;5.46;80.43
80132;SHT30;69442;51.442;10.564;2023-12-14T14:44:55;5.36;80.18
80132;SHT30;69442;51.442;10.564;2023-12-14T14:47:21;5.42;81.12
80132;SHT30;69442;51.442;10.564;2023-12-14T14:49:47;5.38;80.29
80132;SHT30;69442;51.442;10.564;2023-12-14T14:52:12;5.38;80.35
80132;SHT30;69442;51.442;10.564;2023-12-14T14:54:38;5.39;80.57
80132;SHT30;69442;51.442;10.564;2023-12-14T14:57:05;5.35;80.27
80132;SHT30;69442;51.442;10.564;2023-12-14T14:59:37;5.39;81.17
80132;SHT30;69442;51.442;10.564;2023-12-14T15:02:04;5.45;81.48
80132;SHT30;69442;51.442;10.564;2023-12-14T15:04:30;5.45;80.63
80132;SHT30;69442;51.442;10.564;2023-12-14T15:07:00;5.48;81.05
80132;SHT30;69442;51.442;10.564;2023-12-14T15:09:26;5.42;80.36
80132;SHT30;69442;51.442;10.564;2023-12-14T15:11:52;5.40;80.37
80132;SHT30;69442;51.442;10.564;2023-12-14T15:14:18;5.43;80.47
80132;SHT30;69442;51.442;10.564;2023-12-14T15:16:47;5.42;80.74
80132;SHT30;69442;51.442;10.564;2023-12-14T15:19:13;5.34;80.38
80132;SHT30;69442;51.442;10.564;2023-12-14T15:21:38;5.34;80.45
80132;SHT30;69442;51.442;10.564;2023-12-14T15:24:04;5.31;80.78
80132;SHT30;69442;51.442;10.564;2023-12-14T15:26:30;5.29;80.98
80132;SHT30;69442;51.442;10.564;2023-12-14T15:28:57;5.28;80.89